Time;durP1;ratioP1;P1;durP2;ratioP2;P2;SDS_P1;SDS_P2;PMS_P1;PMS_P2;Temp;Humidity;BMP_temperature;BMP_pressure;BME280_temperature;BME280_humidity;BME280_pressure;Samples;Min_cycle;Max_cycle;Signal;HPM_P1;HPM_P2
2023/01/08 00:00:50;;;;;;;19.67;3.20;;;;;;;;;;5034089;28;20121;-66
2023/01/08 00:03:16;;;;;;;23.70;4.90;;;;;;;;;;5033252;28;20073;-66
2023/01/08 00:05:42;;;;;;;21.65;3.78;;;;;;;;;;5034256;28;20022;-66
2023/01/08 00:08:09;;;;;;;14.52;3.08;;;;;;;;;;5033726;28;20041;-66
2023/01/08 00:10:36;;;;;;;19.30;3.67;;;;;;;;;;5034012;28;20104;-66
2023/01/08 00:13:02;;;;;;;26.20;3.17;;;;;;;;;;5033951;28;20474;-66
2023/01/08 00:15:29;;;;;;;16.45;3.38;;;;;;;;;;5034227;28;20474;-66
2023/01/08 00:17:55;;;;;;;21.90;3.90;;;;;;;;;;5033882;28;20030;-66
2023/01/08 00:20:21;;;;;;;18.15;3.67;;;;;;;;;;5033625;28;20026;-66
2023/01/08 00:22:48;;;;;;;20.13;3.67;;;;;;;;;;5033696;28;20037;-66
2023/01/08 00:25:14;;;;;;;22.15;3.65;;;;;;;;;;5033782;28;20104;-66
2023/01/08 00:27:40;;;;;;;23.85;3.47;;;;;;;;;;5032769;28;20409;-66
2023/01/08 00:30:07;;;;;;;28.73;4.85;;;;;;;;;;5033578;28;20025;-66
2023/01/08 00:32:33;;;;;;;15.45;3.17;;;;;;;;;;5033152;28;20044;-66
2023/01/08 00:35:00;;;;;;;20.02;3.60;;;;;;;;;;5033090;28;20056;-66
2023/01/08 00:37:26;;;;;;;21.83;4.45;;;;;;;;;;5033175;28;20029;-66
2023/01/08 00:39:53;;;;;;;23.27;2.72;;;;;;;;;;5033729;28;20041;-66
2023/01/08 00:42:19;;;;;;;14.57;2.97;;;;;;;;;;5033507;28;20052;-66
2023/01/08 00:44:45;;;;;;;18.42;3.65;;;;;;;;;;5033640;28;20397;-66
2023/01/08 00:47:11;;;;;;;15.57;3.33;;;;;;;;;;5033506;28;20116;-66
2023/01/08 00:49:38;;;;;;;26.30;4.05;;;;;;;;;;5033231;28;20025;-66
2023/01/08 00:52:04;;;;;;;22.05;3.42;;;;;;;;;;5033205;28;20104;-66
2023/01/08 00:54:30;;;;;;;23.05;3.78;;;;;;;;;;5033329;28;20025;-66
2023/01/08 00:56:56;;;;;;;21.80;3.50;;;;;;;;;;5033140;28;20064;-66
2023/01/08 00:59:22;;;;;;;16.10;3.03;;;;;;;;;;5033164;28;20052;-66
2023/01/08 01:01:48;;;;;;;12.77;2.60;;;;;;;;;;5015227;28;20508;-66
2023/01/08 01:04:14;;;;;;;31.77;4.03;;;;;;;;;;5013231;28;20036;-66
2023/01/08 01:06:41;;;;;;;21.35;2.67;;;;;;;;;;5014188;28;20042;-66
2023/01/08 01:09:07;;;;;;;28.40;3.78;;;;;;;;;;5032577;28;20029;-66
2023/01/08 01:11:34;;;;;;;26.83;3.85;;;;;;;;;;5032869;28;20040;-66
2023/01/08 01:14:00;;;;;;;17.23;3.08;;;;;;;;;;5032818;28;20032;-66
2023/01/08 01:16:27;;;;;;;18.95;3.00;;;;;;;;;;5032876;28;20033;-66
2023/01/08 01:18:54;;;;;;;18.35;3.45;;;;;;;;;;5031475;28;20033;-66
2023/01/08 01:21:23;;;;;;;23.52;3.78;;;;;;;;;;5032641;28;20255;-66
2023/01/08 01:23:49;;;;;;;18.92;2.80;;;;;;;;;;5033086;28;20029;-66
2023/01/08 01:26:19;;;;;;;18.88;3.03;;;;;;;;;;5032736;28;20029;-66
2023/01/08 01:28:49;;;;;;;23.30;3.20;;;;;;;;;;5030495;28;20057;-66
2023/01/08 01:31:16;;;;;;;12.70;3.08;;;;;;;;;;5012688;28;20041;-66
2023/01/08 01:33:42;;;;;;;10.25;2.33;;;;;;;;;;5012717;28;20101;-66
2023/01/08 01:36:09;;;;;;;14.40;2.65;;;;;;;;;;5012742;28;20046;-66
2023/01/08 01:38:35;;;;;;;19.25;2.80;;;;;;;;;;5012641;28;20026;-66
2023/01/08 01:41:02;;;;;;;17.38;3.25;;;;;;;;;;5012860;28;20026;-66
2023/01/08 01:43:39;;;;;;;25.38;4.22;;;;;;;;;;5013021;28;20030;-66
2023/01/08 01:46:25;;;;;;;14.63;2.60;;;;;;;;;;5012971;28;20029;-66
2023/01/08 01:48:55;;;;;;;17.65;3.15;;;;;;;;;;5015208;28;20080;-66
2023/01/08 01:51:21;;;;;;;27.42;3.50;;;;;;;;;;5014201;28;20030;-66
2023/01/08 01:53:48;;;;;;;18.27;4.13;;;;;;;;;;5032599;28;20374;-66
2023/01/08 01:56:15;;;;;;;20.17;3.58;;;;;;;;;;5032528;28;20018;-66
2023/01/08 01:58:41;;;;;;;9.63;1.85;;;;;;;;;;5031933;28;20017;-66
2023/01/08 02:01:08;;;;;;;15.95;3.05;;;;;;;;;;5032155;28;20108;-66
2023/01/08 02:03:35;;;;;;;24.38;3.70;;;;;;;;;;5032188;28;20484;-66
2023/01/08 02:06:27;;;;;;;24.70;4.03;;;;;;;;;;5032390;28;20026;-66
2023/01/08 02:09:02;;;;;;;24.40;4.28;;;;;;;;;;5032007;28;20481;-66
2023/01/08 02:11:28;;;;;;;21.38;3.17;;;;;;;;;;5031771;28;20427;-66
2023/01/08 02:13:57;;;;;;;29.38;3.22;;;;;;;;;;5032134;28;20374;-66
2023/01/08 02:16:42;;;;;;;27.95;4.18;;;;;;;;;;5030702;28;20029;-66
2023/01/08 02:19:16;;;;;;;24.05;4.60;;;;;;;;;;5032099;28;20037;-66
2023/01/08 02:21:48;;;;;;;21.92;3.67;;;;;;;;;;5031932;28;20033;-66
2023/01/08 02:24:30;;;;;;;19.70;3.00;;;;;;;;;;5032127;28;20038;-66
2023/01/08 02:26:57;;;;;;;26.08;4.35;;;;;;;;;;5031583;28;20539;-66
2023/01/08 02:29:25;;;;;;;16.60;3.42;;;;;;;;;;5031417;28;20073;-66
2023/01/08 02:31:51;;;;;;;22.05;3.33;;;;;;;;;;5031911;28;20030;-66
2023/01/08 02:34:17;;;;;;;28.75;4.88;;;;;;;;;;5031844;28;20059;-66
2023/01/08 02:36:44;;;;;;;24.40;3.67;;;;;;;;;;5032274;28;20029;-66
2023/01/08 02:39:29;;;;;;;19.42;3.35;;;;;;;;;;5032002;28;20091;-66
2023/01/08 02:42:01;;;;;;;23.95;3.83;;;;;;;;;;5032328;28;20463;-66
2023/01/08 02:44:30;;;;;;;19.95;3.78;;;;;;;;;;5032075;28;20030;-66
2023/01/08 02:46:57;;;;;;;28.10;4.22;;;;;;;;;;5031992;28;20025;-66
2023/01/08 02:49:26;;;;;;;20.30;3.80;;;;;;;;;;5031848;28;20026;-66
2023/01/08 02:51:54;;;;;;;25.55;4.97;;;;;;;;;;5034361;28;20040;-66
2023/01/08 02:54:22;;;;;;;29.42;3.10;;;;;;;;;;5035290;28;20037;-66
2023/01/08 02:56:54;;;;;;;22.38;4.50;;;;;;;;;;5034461;28;20037;-66
2023/01/08 02:59:22;;;;;;;21.08;3.78;;;;;;;;;;5035521;28;20033;-66
2023/01/08 03:01:48;;;;;;;18.83;3.35;;;;;;;;;;5035019;28;20049;-66
2023/01/08 03:04:17;;;;;;;22.10;3.60;;;;;;;;;;5035320;28;20095;-66
2023/01/08 03:06:43;;;;;;;19.40;3.15;;;;;;;;;;5025201;28;20402;-66
2023/01/08 03:09:10;;;;;;;26.00;4.13;;;;;;;;;;5019852;28;20080;-66
2023/01/08 03:11:40;;;;;;;17.48;3.20;;;;;;;;;;5015402;28;20478;-66
2023/01/08 03:14:09;;;;;;;19.05;3.72;;;;;;;;;;5024378;28;20044;-66
2023/01/08 03:16:37;;;;;;;33.45;3.85;;;;;;;;;;5034863;28;20462;-66
2023/01/08 03:19:09;;;;;;;18.05;3.28;;;;;;;;;;5018360;28;20092;-66
2023/01/08 03:21:36;;;;;;;27.93;4.43;;;;;;;;;;5029759;28;20029;-66
2023/01/08 03:24:03;;;;;;;22.20;4.15;;;;;;;;;;5034844;28;20029;-66
2023/01/08 03:26:31;;;;;;;23.25;3.65;;;;;;;;;;5015186;28;20030;-66
2023/01/08 03:28:58;;;;;;;18.25;2.80;;;;;;;;;;5015046;28;20470;-66
2023/01/08 03:31:26;;;;;;;19.02;3.30;;;;;;;;;;5014959;28;20030;-66
2023/01/08 03:33:53;;;;;;;30.30;4.07;;;;;;;;;;5015232;28;20026;-66
2023/01/08 03:36:21;;;;;;;29.70;3.97;;;;;;;;;;5015064;28;20022;-66
2023/01/08 03:38:53;;;;;;;26.10;5.13;;;;;;;;;;5014892;28;20026;-66
2023/01/08 03:41:21;;;;;;;24.80;3.55;;;;;;;;;;5014884;28;20030;-66
2023/01/08 03:43:47;;;;;;;24.40;3.28;;;;;;;;;;5014931;28;20065;-66
2023/01/08 03:46:15;;;;;;;27.23;5.07;;;;;;;;;;5014776;28;20034;-66
2023/01/08 03:48:42;;;;;;;24.77;3.80;;;;;;;;;;5014827;28;20382;-66
2023/01/08 03:51:11;;;;;;;19.98;3.53;;;;;;;;;;5032725;28;20021;-66
2023/01/08 03:53:37;;;;;;;20.98;3.50;;;;;;;;;;5024358;28;20032;-66
2023/01/08 03:56:03;;;;;;;24.63;4.35;;;;;;;;;;5034089;28;20028;-66
2023/01/08 03:58:29;;;;;;;20.77;3.25;;;;;;;;;;5033697;28;20508;-66
2023/01/08 04:00:55;;;;;;;24.02;4.30;;;;;;;;;;5033760;28;20121;-66
2023/01/08 04:03:23;;;;;;;14.32;3.50;;;;;;;;;;5033676;28;20037;-66
2023/01/08 04:05:49;;;;;;;22.90;2.55;;;;;;;;;;5034278;28;20037;-66
2023/01/08 04:08:15;;;;;;;14.52;3.15;;;;;;;;;;5033848;28;20027;-66
2023/01/08 04:10:41;;;;;;;27.50;4.80;;;;;;;;;;5033498;28;20038;-66
2023/01/08 04:13:08;;;;;;;22.00;2.95;;;;;;;;;;5033715;28;20027;-66
2023/01/08 04:15:34;;;;;;;11.23;2.60;;;;;;;;;;5033843;28;20032;-66
2023/01/08 04:18:00;;;;;;;20.67;3.40;;;;;;;;;;5033330;28;20030;-66
2023/01/08 04:20:26;;;;;;;16.38;2.45;;;;;;;;;;5033618;28;20026;-66
2023/01/08 04:22:52;;;;;;;17.20;3.13;;;;;;;;;;5021211;28;20036;-66
2023/01/08 04:25:18;;;;;;;17.83;3.00;;;;;;;;;;5033969;28;20055;-66
2023/01/08 04:27:44;;;;;;;16.83;3.55;;;;;;;;;;5033464;28;20478;-66
2023/01/08 04:30:11;;;;;;;15.23;2.65;;;;;;;;;;5033770;28;20065;-66
2023/01/08 04:32:37;;;;;;;17.00;3.80;;;;;;;;;;5033425;28;20049;-66
2023/01/08 04:35:03;;;;;;;18.40;2.95;;;;;;;;;;5033837;28;20389;-66
2023/01/08 04:37:29;;;;;;;7.85;2.45;;;;;;;;;;5032796;28;20033;-66
2023/01/08 04:39:55;;;;;;;17.65;2.58;;;;;;;;;;5033451;28;20045;-66
2023/01/08 04:42:21;;;;;;;11.85;2.15;;;;;;;;;;5032618;28;20553;-66
2023/01/08 04:44:47;;;;;;;16.05;1.92;;;;;;;;;;5033456;28;20045;-66
2023/01/08 04:47:14;;;;;;;17.27;3.03;;;;;;;;;;5033090;28;20036;-66
2023/01/08 04:49:40;;;;;;;15.50;1.83;;;;;;;;;;5033421;28;20179;-66
2023/01/08 04:52:06;;;;;;;14.88;2.25;;;;;;;;;;5032716;28;20014;-66
2023/01/08 04:54:32;;;;;;;14.45;3.15;;;;;;;;;;5033277;28;20047;-66
2023/01/08 04:56:58;;;;;;;16.98;3.47;;;;;;;;;;5023428;28;20025;-66
2023/01/08 04:59:24;;;;;;;20.83;2.88;;;;;;;;;;5015487;28;20559;-66
2023/01/08 05:01:50;;;;;;;9.90;3.00;;;;;;;;;;5032760;28;20017;-66
2023/01/08 05:04:17;;;;;;;13.00;2.50;;;;;;;;;;5031719;28;20033;-66
2023/01/08 05:06:43;;;;;;;15.52;2.47;;;;;;;;;;5032506;28;20121;-66
2023/01/08 05:09:10;;;;;;;15.27;2.80;;;;;;;;;;5033136;28;20039;-66
2023/01/08 05:11:36;;;;;;;11.88;2.70;;;;;;;;;;5032498;28;20045;-66
2023/01/08 05:14:03;;;;;;;16.35;3.72;;;;;;;;;;5032288;28;20034;-66
2023/01/08 05:16:29;;;;;;;16.90;2.78;;;;;;;;;;5033382;28;20116;-66
2023/01/08 05:18:55;;;;;;;16.25;2.92;;;;;;;;;;5032920;28;20072;-66
2023/01/08 05:21:21;;;;;;;16.70;2.88;;;;;;;;;;5032777;28;20026;-66
2023/01/08 05:23:47;;;;;;;13.80;3.55;;;;;;;;;;5032760;28;20241;-66
2023/01/08 05:26:14;;;;;;;16.88;5.20;;;;;;;;;;5032612;28;20104;-66
2023/01/08 05:28:40;;;;;;;11.93;3.03;;;;;;;;;;5032556;28;20025;-66
2023/01/08 05:31:06;;;;;;;18.67;3.35;;;;;;;;;;5032925;28;20022;-66
2023/01/08 05:33:32;;;;;;;16.83;2.88;;;;;;;;;;5032117;28;20108;-66
2023/01/08 05:35:58;;;;;;;13.93;2.78;;;;;;;;;;5032623;28;20513;-66
2023/01/08 05:38:24;;;;;;;10.90;2.67;;;;;;;;;;5031595;28;20021;-66
2023/01/08 05:40:53;;;;;;;19.15;3.42;;;;;;;;;;5029386;28;20397;-66
2023/01/08 05:43:19;;;;;;;20.67;2.83;;;;;;;;;;5032210;28;20109;-66
2023/01/08 05:45:45;;;;;;;12.88;2.70;;;;;;;;;;5032209;28;20369;-66
2023/01/08 05:48:11;;;;;;;19.65;2.97;;;;;;;;;;5032078;28;20116;-66
2023/01/08 05:50:38;;;;;;;16.70;2.83;;;;;;;;;;5031016;28;20455;-66
2023/01/08 05:53:07;;;;;;;21.98;4.43;;;;;;;;;;5030658;28;20017;-66
2023/01/08 05:55:33;;;;;;;16.92;2.55;;;;;;;;;;5031458;28;20025;-66
2023/01/08 05:58:03;;;;;;;16.98;2.95;;;;;;;;;;5033478;28;20113;-66
2023/01/08 06:00:29;;;;;;;17.83;3.25;;;;;;;;;;5032788;28;20037;-66
2023/01/08 06:02:55;;;;;;;16.48;2.60;;;;;;;;;;5030073;28;20435;-66
2023/01/08 06:05:22;;;;;;;18.00;2.75;;;;;;;;;;5025364;28;20017;-66
2023/01/08 06:07:48;;;;;;;17.15;3.22;;;;;;;;;;5031593;28;20061;-66
2023/01/08 06:10:14;;;;;;;15.40;2.72;;;;;;;;;;5031303;28;20033;-66
2023/01/08 06:12:40;;;;;;;16.48;2.92;;;;;;;;;;5031231;28;20056;-66
2023/01/08 06:15:06;;;;;;;16.48;2.88;;;;;;;;;;5031297;28;20113;-66
2023/01/08 06:17:34;;;;;;;17.63;2.88;;;;;;;;;;5031508;28;20032;-66
2023/01/08 06:20:01;;;;;;;13.45;3.22;;;;;;;;;;5030799;28;20025;-66
2023/01/08 06:22:27;;;;;;;21.58;2.83;;;;;;;;;;5031242;28;20057;-66
2023/01/08 06:24:53;;;;;;;17.98;2.85;;;;;;;;;;5031839;28;20034;-66
2023/01/08 06:27:19;;;;;;;18.63;3.13;;;;;;;;;;5044282;28;20053;-66
2023/01/08 06:29:45;;;;;;;21.25;3.30;;;;;;;;;;5032981;28;20033;-66
2023/01/08 06:32:11;;;;;;;19.27;3.17;;;;;;;;;;5023267;28;20450;-67
2023/01/08 06:34:37;;;;;;;15.13;2.55;;;;;;;;;;5023688;28;20050;-67
2023/01/08 06:37:04;;;;;;;21.70;2.95;;;;;;;;;;5025432;28;20022;-66
2023/01/08 06:39:30;;;;;;;18.45;3.40;;;;;;;;;;5023432;28;20036;-66
2023/01/08 06:41:56;;;;;;;14.98;2.75;;;;;;;;;;5025271;28;20037;-66
2023/01/08 06:44:22;;;;;;;19.05;2.60;;;;;;;;;;5037466;28;20044;-66
2023/01/08 06:46:48;;;;;;;15.43;2.65;;;;;;;;;;5035083;28;20040;-66
2023/01/08 06:49:16;;;;;;;16.30;2.35;;;;;;;;;;5031599;28;20026;-66
2023/01/08 06:51:42;;;;;;;14.68;3.45;;;;;;;;;;5035464;28;20017;-66
2023/01/08 06:54:08;;;;;;;18.42;3.80;;;;;;;;;;5034389;28;20036;-66
2023/01/08 06:56:34;;;;;;;15.10;3.08;;;;;;;;;;5034718;28;20010;-66
2023/01/08 06:59:01;;;;;;;20.25;4.78;;;;;;;;;;5033586;28;20445;-66
2023/01/08 07:01:27;;;;;;;15.18;2.10;;;;;;;;;;5035354;28;20064;-66
2023/01/08 07:03:53;;;;;;;12.10;2.80;;;;;;;;;;5034081;28;20527;-66
2023/01/08 07:06:20;;;;;;;14.15;2.85;;;;;;;;;;5035365;28;20096;-66
2023/01/08 07:08:46;;;;;;;17.90;2.88;;;;;;;;;;5035440;28;20112;-66
2023/01/08 07:11:12;;;;;;;20.13;2.70;;;;;;;;;;5035417;28;20021;-66
2023/01/08 07:13:38;;;;;;;14.27;2.45;;;;;;;;;;5030868;28;20552;-66
2023/01/08 07:16:06;;;;;;;18.20;2.80;;;;;;;;;;5031475;28;20033;-66
2023/01/08 07:18:32;;;;;;;15.50;3.30;;;;;;;;;;5031519;28;20029;-66
2023/01/08 07:20:58;;;;;;;19.27;2.83;;;;;;;;;;5031875;28;20033;-66
2023/01/08 07:23:24;;;;;;;21.98;3.60;;;;;;;;;;5034204;28;20033;-66
2023/01/08 07:25:50;;;;;;;19.15;3.20;;;;;;;;;;5031305;28;20412;-66
2023/01/08 07:28:16;;;;;;;25.10;4.47;;;;;;;;;;5031399;28;20382;-66
2023/01/08 07:30:43;;;;;;;14.50;2.88;;;;;;;;;;5031267;28;20018;-67
2023/01/08 07:33:09;;;;;;;21.30;3.13;;;;;;;;;;5028682;28;20022;-66
2023/01/08 07:35:37;;;;;;;19.42;2.92;;;;;;;;;;5034433;28;20049;-66
2023/01/08 07:38:03;;;;;;;17.10;3.33;;;;;;;;;;5023649;28;20022;-66
2023/01/08 07:40:30;;;;;;;18.55;3.30;;;;;;;;;;5031734;28;20032;-66
2023/01/08 07:43:01;;;;;;;20.75;4.13;;;;;;;;;;5025404;28;20044;-66
2023/01/08 07:45:28;;;;;;;23.35;3.65;;;;;;;;;;5029870;28;20048;-66
2023/01/08 07:47:56;;;;;;;28.33;5.05;;;;;;;;;;5028316;28;20041;-66
2023/01/08 07:50:22;;;;;;;24.67;4.15;;;;;;;;;;5031997;28;20461;-66
2023/01/08 07:52:48;;;;;;;33.25;4.72;;;;;;;;;;5029446;28;20034;-66
2023/01/08 07:55:14;;;;;;;29.05;4.18;;;;;;;;;;5032058;28;20022;-68
2023/01/08 07:57:40;;;;;;;25.13;4.97;;;;;;;;;;5033114;28;20497;-68
2023/01/08 08:00:07;;;;;;;19.08;3.88;;;;;;;;;;5024775;28;20045;-68
2023/01/08 08:02:33;;;;;;;30.00;5.43;;;;;;;;;;5023527;28;20038;-68
2023/01/08 08:04:59;;;;;;;27.85;6.35;;;;;;;;;;5024337;28;20033;-68
2023/01/08 08:07:25;;;;;;;29.95;5.18;;;;;;;;;;5026133;28;20021;-68
2023/01/08 08:09:51;;;;;;;23.65;4.68;;;;;;;;;;5027576;28;20092;-68
2023/01/08 08:12:17;;;;;;;20.42;4.63;;;;;;;;;;5027728;28;20029;-68
2023/01/08 08:14:44;;;;;;;29.45;6.05;;;;;;;;;;5020988;28;20025;-68
2023/01/08 08:17:10;;;;;;;29.80;6.95;;;;;;;;;;5032057;28;20024;-68
2023/01/08 08:19:36;;;;;;;28.60;6.18;;;;;;;;;;5031296;28;20041;-68
2023/01/08 08:22:02;;;;;;;30.92;7.93;;;;;;;;;;5022372;28;20030;-68
2023/01/08 08:24:29;;;;;;;29.45;5.13;;;;;;;;;;5020288;28;20079;-68
2023/01/08 08:26:55;;;;;;;33.60;5.60;;;;;;;;;;5027447;28;20065;-68
2023/01/08 08:29:21;;;;;;;35.28;7.38;;;;;;;;;;5030172;28;20041;-69
2023/01/08 08:31:47;;;;;;;26.13;4.70;;;;;;;;;;5022681;28;20067;-69
2023/01/08 08:34:13;;;;;;;26.60;4.60;;;;;;;;;;5024994;28;20045;-68
2023/01/08 08:36:39;;;;;;;29.75;5.93;;;;;;;;;;5023945;28;20379;-69
2023/01/08 08:39:05;;;;;;;32.13;4.43;;;;;;;;;;5031888;28;20034;-69
2023/01/08 08:41:31;;;;;;;41.33;4.53;;;;;;;;;;5032119;28;20048;-69
2023/01/08 08:43:57;;;;;;;33.38;6.15;;;;;;;;;;5031999;28;20068;-69
2023/01/08 08:46:24;;;;;;;27.73;4.30;;;;;;;;;;5025944;28;20037;-69
2023/01/08 08:48:50;;;;;;;23.92;3.95;;;;;;;;;;5031008;28;20017;-69
2023/01/08 08:51:16;;;;;;;32.72;4.43;;;;;;;;;;5032689;28;20461;-69
2023/01/08 08:53:42;;;;;;;21.48;4.10;;;;;;;;;;5030953;28;20031;-69
2023/01/08 08:56:08;;;;;;;24.25;4.22;;;;;;;;;;5029565;28;20013;-69
2023/01/08 08:58:34;;;;;;;34.85;4.70;;;;;;;;;;5027904;28;20025;-69
2023/01/08 09:01:02;;;;;;;37.33;4.97;;;;;;;;;;5030442;28;20029;-69
2023/01/08 09:03:29;;;;;;;29.30;3.80;;;;;;;;;;5031640;28;20373;-69
2023/01/08 09:05:55;;;;;;;20.17;3.60;;;;;;;;;;5032199;28;20101;-69
2023/01/08 09:08:21;;;;;;;24.75;4.35;;;;;;;;;;5032563;28;20029;-69
2023/01/08 09:10:47;;;;;;;46.45;5.97;;;;;;;;;;5034789;28;20098;-69
2023/01/08 09:13:13;;;;;;;23.92;3.97;;;;;;;;;;5035245;28;20104;-69
2023/01/08 09:15:40;;;;;;;28.42;5.40;;;;;;;;;;5032106;28;20052;-69
2023/01/08 09:18:06;;;;;;;35.17;6.68;;;;;;;;;;5032906;28;20068;-69
2023/01/08 09:20:32;;;;;;;30.33;4.20;;;;;;;;;;5030903;28;20095;-69
2023/01/08 09:22:59;;;;;;;21.35;3.75;;;;;;;;;;5029979;28;20370;-69
2023/01/08 09:25:25;;;;;;;27.55;4.97;;;;;;;;;;5027798;28;20021;-69
2023/01/08 09:28:01;;;;;;;28.05;4.97;;;;;;;;;;5023265;28;20401;-69
2023/01/08 09:30:27;;;;;;;29.45;4.15;;;;;;;;;;5029557;28;20036;-69
2023/01/08 09:32:58;;;;;;;29.58;4.57;;;;;;;;;;5031880;28;20022;-69
2023/01/08 09:35:24;;;;;;;26.13;4.47;;;;;;;;;;5029462;28;20133;-69
2023/01/08 09:37:53;;;;;;;27.90;3.58;;;;;;;;;;5030190;28;20029;-69
2023/01/08 09:40:25;;;;;;;18.25;2.95;;;;;;;;;;5028242;28;20025;-69
2023/01/08 09:43:00;;;;;;;21.55;3.38;;;;;;;;;;5031681;28;20382;-69
2023/01/08 09:45:28;;;;;;;23.10;3.25;;;;;;;;;;5023069;28;20025;-69
2023/01/08 09:47:55;;;;;;;17.48;3.83;;;;;;;;;;5030339;28;20026;-69
2023/01/08 09:50:22;;;;;;;21.10;2.95;;;;;;;;;;5026854;28;20061;-69
2023/01/08 09:52:48;;;;;;;50.03;7.57;;;;;;;;;;5026665;28;20025;-69
2023/01/08 09:55:15;;;;;;;20.42;3.45;;;;;;;;;;5028062;28;20032;-69
2023/01/08 09:57:42;;;;;;;14.40;3.15;;;;;;;;;;5031970;28;20026;-69
2023/01/08 10:00:15;;;;;;;24.13;4.43;;;;;;;;;;5032212;28;20021;-69
2023/01/08 10:02:41;;;;;;;33.65;5.15;;;;;;;;;;5037721;28;20029;-69
2023/01/08 10:05:14;;;;;;;23.42;4.07;;;;;;;;;;5037260;28;20017;-69
2023/01/08 10:07:40;;;;;;;;;;;;;;;;;;5036300;28;20021;-69
2023/01/08 10:10:15;;;;;;;18.67;3.05;;;;;;;;;;5035082;28;20365;-69
2023/01/08 10:12:41;;;;;;;16.08;4.05;;;;;;;;;;5033601;28;20033;-69
2023/01/08 10:15:11;;;;;;;19.48;3.30;;;;;;;;;;5031560;28;20461;-69
2023/01/08 10:17:38;;;;;;;15.65;2.97;;;;;;;;;;5034595;28;20448;-69
2023/01/08 10:20:10;;;;;;;17.95;2.80;;;;;;;;;;5034832;28;20033;-69
2023/01/08 10:22:36;;;;;;;16.27;2.83;;;;;;;;;;5030593;28;20025;-69
2023/01/08 10:25:05;;;;;;;20.02;2.67;;;;;;;;;;5032291;28;20029;-69
2023/01/08 10:27:31;;;;;;;13.68;2.47;;;;;;;;;;5030197;28;20041;-69
2023/01/08 10:30:03;;;;;;;13.23;3.63;;;;;;;;;;5032784;28;20053;-69
2023/01/08 10:32:33;;;;;;;10.40;3.03;;;;;;;;;;5032478;28;20578;-68
2023/01/08 10:35:02;;;;;;;16.40;2.80;;;;;;;;;;5033093;28;20041;-69
2023/01/08 10:37:31;;;;;;;13.25;2.55;;;;;;;;;;5034269;28;20048;-68
2023/01/08 10:40:20;;;;;;;17.25;3.75;;;;;;;;;;5033105;28;20083;-69
2023/01/08 10:42:47;;;;;;;15.73;3.72;;;;;;;;;;5028195;28;20041;-68
2023/01/08 10:45:24;;;;;;;17.52;2.72;;;;;;;;;;5034044;28;20018;-69
2023/01/08 10:47:52;;;;;;;17.25;3.22;;;;;;;;;;5026798;28;20453;-69
2023/01/08 10:50:22;;;;;;;12.07;2.67;;;;;;;;;;5029976;28;20028;-69
2023/01/08 10:52:52;;;;;;;13.15;2.35;;;;;;;;;;5033633;28;20065;-69
2023/01/08 10:55:23;;;;;;;12.90;2.10;;;;;;;;;;5029639;28;20024;-69
2023/01/08 10:57:53;;;;;;;13.45;2.45;;;;;;;;;;5033845;28;20033;-69
2023/01/08 11:00:23;;;;;;;15.43;3.47;;;;;;;;;;5029321;28;20030;-69
2023/01/08 11:02:49;;;;;;;7.45;1.90;;;;;;;;;;5033878;28;20525;-69
2023/01/08 11:05:15;;;;;;;10.80;2.03;;;;;;;;;;5033122;28;20079;-69
2023/01/08 11:07:42;;;;;;;12.48;1.98;;;;;;;;;;5034360;28;20041;-69
2023/01/08 11:10:20;;;;;;;7.18;1.83;;;;;;;;;;5033627;28;20489;-69
2023/01/08 11:12:47;;;;;;;11.00;1.80;;;;;;;;;;5032897;28;20100;-69
2023/01/08 11:15:18;;;;;;;11.85;1.75;;;;;;;;;;5029019;28;20014;-69
2023/01/08 11:17:45;;;;;;;4.68;1.00;;;;;;;;;;5032892;28;20024;-69
2023/01/08 11:20:37;;;;;;;8.95;1.83;;;;;;;;;;5033378;28;20394;-69
2023/01/08 11:23:04;;;;;;;6.78;1.83;;;;;;;;;;5033022;28;20042;-69
2023/01/08 11:25:31;;;;;;;11.95;1.77;;;;;;;;;;5031044;28;20082;-69
2023/01/08 11:27:59;;;;;;;4.63;0.90;;;;;;;;;;5028384;28;20029;-69
2023/01/08 11:30:27;;;;;;;4.85;1.35;;;;;;;;;;5032839;28;20029;-69
2023/01/08 11:33:08;;;;;;;7.60;1.77;;;;;;;;;;5033063;28;20393;-69
2023/01/08 11:35:44;;;;;;;3.10;1.00;;;;;;;;;;5032991;28;20045;-69
2023/01/08 11:38:12;;;;;;;5.55;1.35;;;;;;;;;;5033347;28;20485;-69
2023/01/08 11:40:48;;;;;;;5.32;1.15;;;;;;;;;;5028683;28;20037;-69
2023/01/08 11:43:27;;;;;;;3.45;1.63;;;;;;;;;;5031797;28;20021;-69
2023/01/08 11:45:56;;;;;;;9.80;1.50;;;;;;;;;;5019832;28;20080;-69
2023/01/08 11:48:33;;;;;;;6.88;1.70;;;;;;;;;;5032693;28;20021;-69
2023/01/08 11:51:05;;;;;;;6.07;1.38;;;;;;;;;;5030926;28;20045;-68
2023/01/08 11:53:38;;;;;;;6.13;1.60;;;;;;;;;;5031771;28;20044;-68
2023/01/08 11:56:04;;;;;;;5.78;2.08;;;;;;;;;;5026409;28;20497;-68
2023/01/08 11:58:41;;;;;;;4.55;1.38;;;;;;;;;;5033577;28;20377;-68
2023/01/08 12:01:08;;;;;;;10.50;1.70;;;;;;;;;;5035703;28;20044;-68
2023/01/08 12:03:41;;;;;;;6.90;1.55;;;;;;;;;;5032654;28;20555;-68
2023/01/08 12:06:37;;;;;;;4.38;1.63;;;;;;;;;;5030021;28;20433;-69
2023/01/08 12:09:12;;;;;;;7.50;1.58;;;;;;;;;;5035989;28;20029;-68
2023/01/08 12:11:56;;;;;;;10.23;1.90;;;;;;;;;;5029450;28;20029;-68
2023/01/08 12:14:43;;;;;;;10.00;1.67;;;;;;;;;;5033082;28;20041;-68
2023/01/08 12:17:24;;;;;;;10.85;1.67;;;;;;;;;;5028380;28;20040;-68
2023/01/08 12:20:06;;;;;;;13.07;2.00;;;;;;;;;;5026940;28;20120;-68
2023/01/08 12:22:52;;;;;;;12.07;2.88;;;;;;;;;;5029508;28;20049;-68
2023/01/08 12:25:41;;;;;;;15.32;2.92;;;;;;;;;;5030025;28;20069;-68
2023/01/08 12:28:26;;;;;;;8.15;1.63;;;;;;;;;;5027465;28;20045;-70
2023/01/08 12:31:07;;;;;;;8.48;2.20;;;;;;;;;;5029913;28;20048;-69
2023/01/08 12:33:33;;;;;;;10.98;2.38;;;;;;;;;;5027915;28;20116;-69
2023/01/08 12:36:01;;;;;;;11.45;2.53;;;;;;;;;;5029711;28;20069;-69
2023/01/08 12:38:33;;;;;;;14.70;3.58;;;;;;;;;;5026381;28;20017;-69
2023/01/08 12:41:10;;;;;;;21.53;3.50;;;;;;;;;;5027091;28;20542;-69
2023/01/08 12:43:55;;;;;;;17.45;2.70;;;;;;;;;;5027091;28;20409;-69
2023/01/08 12:46:23;;;;;;;13.32;2.17;;;;;;;;;;5023630;28;20120;-69
2023/01/08 12:48:50;;;;;;;10.23;2.00;;;;;;;;;;5027568;28;20025;-69
2023/01/08 12:51:24;;;;;;;11.82;2.35;;;;;;;;;;5023759;28;20736;-69
2023/01/08 12:54:08;;;;;;;12.73;3.08;;;;;;;;;;5024952;28;20036;-69
2023/01/08 12:56:50;;;;;;;12.85;2.10;;;;;;;;;;5023052;28;20036;-69
2023/01/08 12:59:19;;;;;;;9.55;1.98;;;;;;;;;;5024248;28;20456;-70
2023/01/08 13:01:50;;;;;;;15.93;3.28;;;;;;;;;;5025041;28;20043;-70
2023/01/08 13:04:16;;;;;;;9.43;2.20;;;;;;;;;;5026600;28;20045;-69
2023/01/08 13:06:49;;;;;;;16.98;2.90;;;;;;;;;;5030870;28;20501;-69
2023/01/08 13:09:22;;;;;;;15.80;2.85;;;;;;;;;;5028277;28;20120;-70
2023/01/08 13:11:48;;;;;;;;;;;;;;;;;;5032340;28;20037;-69
2023/01/08 13:14:16;;;;;;;12.38;3.28;;;;;;;;;;5028408;28;19915;-69
2023/01/08 13:16:44;;;;;;;6.43;1.50;;;;;;;;;;5022425;28;20029;-70
2023/01/08 13:19:23;;;;;;;12.13;3.47;;;;;;;;;;5021992;28;20033;-69
2023/01/08 13:21:51;;;;;;;10.88;1.80;;;;;;;;;;5026798;28;20029;-69
2023/01/08 13:24:28;;;;;;;9.57;1.75;;;;;;;;;;5020142;28;20036;-70
2023/01/08 13:26:54;;;;;;;6.32;1.77;;;;;;;;;;5022789;28;20093;-69
2023/01/08 13:29:32;;;;;;;14.40;3.15;;;;;;;;;;5022899;28;20035;-69
2023/01/08 13:31:59;;;;;;;11.85;2.08;;;;;;;;;;5024336;28;20032;-69
2023/01/08 13:34:39;;;;;;;10.00;1.80;;;;;;;;;;5021963;28;20046;-69
2023/01/08 13:37:05;;;;;;;4.20;1.33;;;;;;;;;;5023821;28;20484;-69
2023/01/08 13:39:33;;;;;;;10.40;1.92;;;;;;;;;;5013867;28;20038;-69
2023/01/08 13:42:12;;;;;;;12.05;2.28;;;;;;;;;;5022419;28;20102;-70
2023/01/08 13:44:47;;;;;;;12.07;2.03;;;;;;;;;;5017709;28;20030;-69
2023/01/08 13:47:32;;;;;;;10.77;1.95;;;;;;;;;;5021103;28;20064;-69
2023/01/08 13:49:59;;;;;;;7.72;1.92;;;;;;;;;;5025744;28;20037;-69
2023/01/08 13:52:41;;;;;;;7.25;1.88;;;;;;;;;;5018399;28;20064;-69
2023/01/08 13:55:13;;;;;;;6.50;1.75;;;;;;;;;;5020815;28;20533;-70
2023/01/08 13:57:42;;;;;;;12.13;1.95;;;;;;;;;;5020029;28;20032;-70
2023/01/08 14:00:17;;;;;;;16.90;2.47;;;;;;;;;;5014559;28;20033;-70
2023/01/08 14:02:48;;;;;;;17.90;2.50;;;;;;;;;;5018298;28;20025;-69
2023/01/08 14:05:24;;;;;;;10.38;1.95;;;;;;;;;;5018978;28;20022;-70
2023/01/08 14:07:50;;;;;;;8.00;2.05;;;;;;;;;;5017033;28;20021;-70
2023/01/08 14:10:17;;;;;;;8.65;2.17;;;;;;;;;;5019275;28;20025;-69
2023/01/08 14:12:43;;;;;;;18.45;3.00;;;;;;;;;;5023086;28;20040;-69
2023/01/08 14:15:15;;;;;;;16.73;2.58;;;;;;;;;;5019016;28;20016;-69
2023/01/08 14:17:42;;;;;;;15.48;2.35;;;;;;;;;;5018583;28;20819;-70
2023/01/08 14:20:10;;;;;;;11.13;2.50;;;;;;;;;;5019008;28;20493;-70
2023/01/08 14:22:36;;;;;;;15.20;2.33;;;;;;;;;;5024396;28;20033;-69
2023/01/08 14:25:04;;;;;;;13.13;3.92;;;;;;;;;;5022660;28;20022;-69
2023/01/08 14:27:34;;;;;;;16.05;2.50;;;;;;;;;;5022716;28;20033;-69
2023/01/08 14:30:01;;;;;;;15.75;2.83;;;;;;;;;;5020281;28;20087;-70
2023/01/08 14:32:28;;;;;;;15.40;3.05;;;;;;;;;;5022504;28;20017;-70
2023/01/08 14:34:56;;;;;;;14.23;2.67;;;;;;;;;;5025106;28;20796;-69
2023/01/08 14:37:22;;;;;;;16.55;3.35;;;;;;;;;;5020948;28;20037;-69
2023/01/08 14:39:50;;;;;;;12.45;3.63;;;;;;;;;;5025601;28;20439;-69